Time;durP1;ratioP1;P1;durP2;ratioP2;P2;SDS_P1;SDS_P2;PMS_P1;PMS_P2;Temp;Humidity;BMP_temperature;BMP_pressure;BME280_temperature;BME280_humidity;BME280_pressure;Samples;Min_cycle;Max_cycle;Signal;HPM_P1;HPM_P2
2022/09/27 00:01:04;;;;;;;;;;;;;;;20.71;49.60;99206.91;5136682;27;20413;-39
2022/09/27 00:03:30;;;;;;;;;;;;;;;20.72;49.76;99211.28;5138706;27;19927;-39
2022/09/27 00:06:12;;;;;;;;;;;;;;;20.71;49.69;99217.97;5135235;27;20273;-39
2022/09/27 00:08:38;;;;;;;;;;;;;;;20.71;49.72;99215.19;5135413;27;19970;-39
2022/09/27 00:11:04;;;;;;;;;;;;;;;20.71;49.63;99214.38;5133109;27;19931;-39
2022/09/27 00:13:30;;;;;;;;;;;;;;;20.71;49.67;99217.97;5135100;27;20079;-39
2022/09/27 00:15:59;;;;;;;;;;;;;;;20.71;49.82;99223.50;5134106;27;19935;-39
2022/09/27 00:18:25;;;;;;;;;;;;;;;20.71;49.75;99226.25;5136713;27;19931;-39
2022/09/27 00:20:50;;;;;;;;;;;;;;;20.71;49.61;99229.03;5137182;27;19935;-39
2022/09/27 00:23:16;;;;;;;;;;;;;;;20.72;49.58;99227.06;5139877;27;20289;-39
2022/09/27 00:25:41;;;;;;;;;;;;;;;20.71;49.61;99222.69;5139491;27;19943;-39
2022/09/27 00:28:07;;;;;;;;;;;;;;;20.71;49.64;99226.25;5138459;27;19979;-39
2022/09/27 00:30:33;;;;;;;;;;;;;;;20.71;49.64;99229.03;5119836;28;19988;-38
2022/09/27 00:32:59;;;;;;;;;;;;;;;20.71;49.63;99231.78;5137303;27;19945;-39
2022/09/27 00:35:24;;;;;;;;;;;;;;;20.71;49.72;99236.53;5132346;27;20035;-39
2022/09/27 00:37:50;;;;;;;;;;;;;;;20.71;49.64;99240.09;5133894;27;19933;-39
2022/09/27 00:40:16;;;;;;;;;;;;;;;20.70;49.59;99235.72;5140807;27;19927;-39
2022/09/27 00:42:45;;;;;;;;;;;;;;;20.70;49.52;99246.78;5137966;27;20019;-39
2022/09/27 00:45:11;;;;;;;;;;;;;;;20.69;49.53;99259.00;5139795;27;20358;-39
2022/09/27 00:47:40;;;;;;;;;;;;;;;20.70;49.60;99241.25;5120707;27;20285;-38
2022/09/27 00:50:08;;;;;;;;;;;;;;;20.70;49.70;99249.53;5140566;27;19962;-39
2022/09/27 00:52:54;;;;;;;;;;;;;;;20.69;49.62;99255.41;5141023;27;20006;-38
2022/09/27 00:55:22;;;;;;;;;;;;;;;20.69;49.60;99250.69;5120398;27;19974;-38
2022/09/27 00:57:48;;;;;;;;;;;;;;;20.71;49.33;99247.59;5136006;27;19971;-39
2022/09/27 01:00:14;;;;;;;;;;;;;;;20.70;49.53;99251.50;5132948;27;19931;-38
2022/09/27 01:02:40;;;;;;;;;;;;;;;20.71;49.43;99251.16;5137545;27;19946;-38
2022/09/27 01:05:06;;;;;;;;;;;;;;;20.70;49.46;99248.72;5134992;27;20529;-38
2022/09/27 01:07:32;;;;;;;;;;;;;;;20.70;49.42;99251.50;5130965;27;20406;-38
2022/09/27 01:09:57;;;;;;;;;;;;;;;20.70;49.51;99255.06;5136485;27;19942;-39
2022/09/27 01:12:27;;;;;;;;;;;;;;;20.69;49.43;99253.47;5140683;27;19926;-38
2022/09/27 01:15:00;;;;;;;;;;;;;;;20.69;49.55;99264.53;5133391;27;20019;-38
2022/09/27 01:17:28;;;;;;;;;;;;;;;20.70;49.44;99266.13;5134178;27;20006;-38
2022/09/27 01:20:14;;;;;;;;;;;;;;;20.67;49.61;99250.19;5133586;27;20049;-38
2022/09/27 01:22:41;;;;;;;;;;;;;;;20.69;49.46;99260.94;5114115;27;20021;-39
2022/09/27 01:25:20;;;;;;;;;;;;;;;20.69;49.53;99267.28;5131826;27;20010;-38
2022/09/27 01:28:05;;;;;;;;;;;;;;;20.69;49.42;99266.47;5140392;27;19931;-39
2022/09/27 01:30:34;;;;;;;;;;;;;;;20.69;49.67;99272.00;5116105;27;20014;-39
2022/09/27 01:33:04;;;;;;;;;;;;;;;20.69;49.60;99269.25;5136895;27;19975;-38
2022/09/27 01:35:34;;;;;;;;;;;;;;;20.69;49.38;99272.00;5134143;27;20010;-39
2022/09/27 01:38:09;;;;;;;;;;;;;;;20.70;49.63;99265.34;5139334;27;19966;-38
2022/09/27 01:40:40;;;;;;;;;;;;;;;20.70;49.41;99268.09;5134121;27;20067;-39
2022/09/27 01:43:07;;;;;;;;;;;;;;;20.67;49.63;99265.97;5137958;27;20026;-38
2022/09/27 01:45:35;;;;;;;;;;;;;;;20.67;49.46;99268.75;5138824;27;20338;-39
2022/09/27 01:48:03;;;;;;;;;;;;;;;20.66;49.56;99265.19;5134061;27;20225;-39
2022/09/27 01:50:30;;;;;;;;;;;;;;;20.67;49.61;99266.78;5131481;27;20445;-38
2022/09/27 01:52:58;;;;;;;;;;;;;;;20.69;49.42;99274.78;5134864;27;20402;-39
2022/09/27 01:55:24;;;;;;;;;;;;;;;20.68;49.42;99270.38;5134578;27;19966;-38
2022/09/27 01:57:54;;;;;;;;;;;;;;;20.68;49.61;99267.59;5135608;27;19979;-38
2022/09/27 02:00:20;;;;;;;;;;;;;;;20.68;49.48;99267.59;5118358;27;20017;-38
2022/09/27 02:02:49;;;;;;;;;;;;;;;20.67;49.47;99272.31;5117017;27;20286;-39
2022/09/27 02:05:16;;;;;;;;;;;;;;;20.67;49.41;99279.81;5132560;27;19974;-39
2022/09/27 02:07:44;;;;;;;;;;;;;;;20.68;49.45;99275.91;5138733;27;20021;-38
2022/09/27 02:10:10;;;;;;;;;;;;;;;20.68;49.46;99271.22;5131842;27;20010;-38
2022/09/27 02:12:39;;;;;;;;;;;;;;;20.69;49.34;99274.78;5133407;27;20068;-39
2022/09/27 02:15:06;;;;;;;;;;;;;;;20.67;49.67;99277.84;5138019;27;20014;-38
2022/09/27 02:17:38;;;;;;;;;;;;;;;20.69;49.54;99272.00;5133680;27;20196;-39
2022/09/27 02:20:23;;;;;;;;;;;;;;;20.67;49.46;99271.50;5135372;27;20014;-38
2022/09/27 02:22:50;;;;;;;;;;;;;;;20.67;49.62;99279.81;5115212;27;20010;-39
2022/09/27 02:25:19;;;;;;;;;;;;;;;20.68;49.49;99287.81;5138541;27;20013;-39
2022/09/27 02:28:04;;;;;;;;;;;;;;;20.67;49.48;99290.88;5140124;27;20406;-38
2022/09/27 02:30:32;;;;;;;;;;;;;;;20.68;49.58;99289.72;5138579;27;19991;-39
2022/09/27 02:32:58;;;;;;;;;;;;;;;20.66;49.55;99290.06;5135841;27;19931;-39
2022/09/27 02:35:24;;;;;;;;;;;;;;;20.66;49.47;99301.13;5133544;27;19931;-39
2022/09/27 02:37:50;;;;;;;;;;;;;;;20.68;49.38;99292.50;5134081;27;19975;-39
2022/09/27 02:40:16;;;;;;;;;;;;;;;20.65;49.54;99294.00;5118153;27;19974;-39
2022/09/27 02:42:41;;;;;;;;;;;;;;;20.67;49.31;99305.53;5140607;27;19969;-38
2022/09/27 02:45:07;;;;;;;;;;;;;;;20.66;49.31;99297.56;5135315;27;20018;-39
2022/09/27 02:47:44;;;;;;;;;;;;;;;20.67;49.42;99301.94;5129393;27;19989;-39
2022/09/27 02:50:15;;;;;;;;;;;;;;;20.66;49.28;99305.84;5137416;27;19930;-39
2022/09/27 02:52:43;;;;;;;;;;;;;;;20.67;49.45;99313.81;5115429;27;20018;-39
2022/09/27 02:55:26;;;;;;;;;;;;;;;20.66;49.40;99309.44;5132095;27;20397;-39
2022/09/27 03:00:39;;;;;;;;;;;;;;;20.66;49.28;99309.44;5163466;27;20010;-37
2022/09/27 03:03:07;;;;;;;;;;;;;;;20.68;49.36;99311.84;5150080;27;20494;-37
2022/09/27 03:05:37;;;;;;;;;;;;;;;20.67;49.54;99313.00;5154936;27;20010;-37
2022/09/27 03:08:02;;;;;;;;;;;;;;;20.67;49.47;99321.31;5151363;27;19974;-37
2022/09/27 03:10:28;;;;;;;;;;;;;;;20.66;49.33;99316.91;5150596;27;19930;-37
2022/09/27 03:12:54;;;;;;;;;;;;;;;20.66;49.29;99311.38;5154814;27;20018;-37
2022/09/27 03:15:19;;;;;;;;;;;;;;;20.66;49.38;99309.44;5152186;27;19943;-37
2022/09/27 03:17:45;;;;;;;;;;;;;;;20.67;49.29;99316.59;5152588;27;21711;-37
2022/09/27 03:20:10;;;;;;;;;;;;;;;20.65;49.36;99313.34;5154180;27;19978;-37
2022/09/27 03:22:37;;;;;;;;;;;;;;;20.66;49.17;99312.19;5153583;27;19953;-37
2022/09/27 03:25:03;;;;;;;;;;;;;;;20.67;49.39;99315.78;5149257;27;20010;-37
2022/09/27 03:27:28;;;;;;;;;;;;;;;20.68;49.29;99320.16;5153164;27;20010;-37
2022/09/27 03:29:54;;;;;;;;;;;;;;;20.67;49.34;99326.84;5148813;27;20058;-38
2022/09/27 03:32:19;;;;;;;;;;;;;;;20.66;49.37;99314.97;5150463;27;19935;-37
2022/09/27 03:34:45;;;;;;;;;;;;;;;20.66;49.26;99323.25;5154438;27;19930;-37
2022/09/27 03:37:11;;;;;;;;;;;;;;;20.66;49.21;99320.50;5153277;27;19938;-37
2022/09/27 03:39:36;;;;;;;;;;;;;;;20.66;49.29;99325.22;5155908;27;19935;-37
2022/09/27 03:42:02;;;;;;;;;;;;;;;20.67;49.19;99326.84;5152643;27;20143;-37
2022/09/27 03:44:27;;;;;;;;;;;;;;;20.66;49.30;99322.44;5138261;27;19923;-37
2022/09/27 03:46:53;;;;;;;;;;;;;;;20.67;49.27;99316.59;5132538;27;19924;-37
2022/09/27 03:49:18;;;;;;;;;;;;;;;20.66;49.23;99323.25;5136324;27;19946;-37
2022/09/27 03:51:44;;;;;;;;;;;;;;;20.66;49.26;99326.03;5138975;27;19924;-37
2022/09/27 03:54:09;;;;;;;;;;;;;;;20.66;49.31;99323.25;5133397;27;19968;-37
2022/09/27 03:56:35;;;;;;;;;;;;;;;20.66;49.28;99316.91;5133582;27;20388;-37
2022/09/27 03:59:00;;;;;;;;;;;;;;;20.66;49.42;99326.03;5135529;27;20495;-37
2022/09/27 04:01:26;;;;;;;;;;;;;;;20.66;49.21;99323.25;5141501;27;19984;-37
2022/09/27 04:03:52;;;;;;;;;;;;;;;20.66;49.09;99328.78;5132955;27;19927;-37
2022/09/27 04:06:17;;;;;;;;;;;;;;;20.66;49.29;99322.44;5136225;27;19927;-37
2022/09/27 04:08:43;;;;;;;;;;;;;;;20.64;49.27;99325.56;5142066;27;20121;-38
2022/09/27 04:11:09;;;;;;;;;;;;;;;20.66;49.17;99326.03;5125251;27;19923;-37
2022/09/27 04:13:35;;;;;;;;;;;;;;;20.66;49.18;99325.22;5106394;27;19924;-37
2022/09/27 04:16:01;;;;;;;;;;;;;;;20.66;49.23;99325.22;5121672;27;19934;-38
2022/09/27 04:18:27;;;;;;;;;;;;;;;20.67;49.28;99326.84;5115568;28;20006;-37
2022/09/27 04:20:52;;;;;;;;;;;;;;;20.66;49.01;99326.03;5120158;27;19974;-37
2022/09/27 04:23:19;;;;;;;;;;;;;;;20.67;49.14;99330.41;5117909;28;19924;-37
2022/09/27 04:25:45;;;;;;;;;;;;;;;20.67;48.87;99327.66;5116967;27;19974;-37
2022/09/27 04:28:11;;;;;;;;;;;;;;;20.66;49.29;99327.97;5118667;28;20018;-37
2022/09/27 04:30:36;;;;;;;;;;;;;;;20.67;49.16;99337.91;5122348;27;20197;-38
2022/09/27 04:33:02;;;;;;;;;;;;;;;20.66;49.37;99333.53;5120957;27;19935;-37
2022/09/27 04:38:13;;;;;;;;;;;;;;;20.66;49.18;99337.09;5107303;28;20010;-37
2022/09/27 04:40:38;;;;;;;;;;;;;;;20.66;49.27;99341.81;5132485;27;20026;-37
2022/09/27 04:43:04;;;;;;;;;;;;;;;20.66;49.26;99341.81;5121341;27;19924;-37
2022/09/27 04:45:30;;;;;;;;;;;;;;;20.65;49.13;99346.53;5122015;27;19931;-39
2022/09/27 04:47:55;;;;;;;;;;;;;;;20.65;49.21;99345.72;5117492;27;19932;-39
2022/09/27 04:50:21;;;;;;;;;;;;;;;20.64;49.22;99349.63;5123159;27;19931;-39
2022/09/27 04:52:50;;;;;;;;;;;;;;;20.64;49.15;99342.16;5123053;27;19935;-39
2022/09/27 04:55:16;;;;;;;;;;;;;;;20.66;49.05;99353.69;5116553;28;19978;-39
2022/09/27 04:57:42;;;;;;;;;;;;;;;20.65;49.13;99349.31;5115896;28;19932;-39
2022/09/27 05:00:08;;;;;;;;;;;;;;;20.65;48.87;99348.50;5117290;27;19943;-39
2022/09/27 05:02:33;;;;;;;;;;;;;;;20.66;49.05;99350.13;5122681;27;19984;-39
2022/09/27 05:04:59;;;;;;;;;;;;;;;20.66;48.77;99352.88;5120395;27;19932;-39
2022/09/27 05:07:25;;;;;;;;;;;;;;;20.63;48.56;99359.88;5121192;27;20679;-39
2022/09/27 05:09:50;;;;;;;;;;;;;;;20.63;48.53;99359.88;5117136;27;19923;-39
2022/09/27 05:12:16;;;;;;;;;;;;;;;20.59;47.99;99353.38;5126799;27;19930;-39
2022/09/27 05:14:41;;;;;;;;;;;;;;;20.58;48.10;99371.13;5121002;27;19928;-39
2022/09/27 05:17:07;;;;;;;;;;;;;;;20.58;48.38;99384.94;5118854;27;20420;-39
2022/09/27 05:19:33;;;;;;;;;;;;;;;20.59;48.46;99383.78;5115835;27;19935;-39
2022/09/27 05:21:58;;;;;;;;;;;;;;;20.61;48.55;99381.53;5122989;27;19927;-41
2022/09/27 05:24:24;;;;;;;;;;;;;;;20.60;48.48;99381.88;5123968;28;19931;-40
2022/09/27 05:26:50;;;;;;;;;;;;;;;20.61;48.43;99381.53;5115441;28;19931;-39
2022/09/27 05:29:16;;;;;;;;;;;;;;;20.62;48.57;99382.34;5120989;27;19924;-39
2022/09/27 05:31:42;;;;;;;;;;;;;;;20.62;48.51;99388.69;5119180;28;20290;-39
2022/09/27 05:34:09;;;;;;;;;;;;;;;20.62;48.63;99393.41;5113112;28;19950;-40
2022/09/27 05:36:35;;;;;;;;;;;;;;;20.64;48.70;99389.19;5116908;27;20432;-39
2022/09/27 05:39:01;;;;;;;;;;;;;;;20.63;48.67;99395.03;5118855;27;20034;-39
2022/09/27 05:41:26;;;;;;;;;;;;;;;20.29;49.71;99396.63;5122232;28;20214;-40
2022/09/27 05:43:52;;;;;;;;;;;;;;;20.35;49.64;99395.34;5119595;27;19931;-39
2022/09/27 05:46:18;;;;;;;;;;;;;;;20.45;49.71;99391.44;5119270;27;19981;-39
2022/09/27 05:48:43;;;;;;;;;;;;;;;20.56;49.40;99392.75;5120283;27;20346;-39
2022/09/27 05:51:09;;;;;;;;;;;;;;;20.59;49.31;99408.69;5118009;27;19969;-39
2022/09/27 05:53:35;;;;;;;;;;;;;;;20.56;49.02;99398.28;5118509;28;20049;-47
2022/09/27 05:56:02;;;;;;;;;;;;;;;20.48;48.58;99402.69;5116996;28;20030;-39
2022/09/27 05:58:27;;;;;;;;;;;;;;;20.54;48.80;99398.59;5097720;28;19935;-39
2022/09/27 06:00:53;;;;;;;;;;;;;;;20.59;48.98;99399.56;5116718;27;20424;-39
2022/09/27 06:03:18;;;;;;;;;;;;;;;20.58;48.99;99393.25;5114356;27;20169;-38
2022/09/27 06:05:44;;;;;;;;;;;;;;;20.58;49.07;99398.78;5108155;27;19931;-38
2022/09/27 06:08:16;;;;;;;;;;;;;;;20.60;49.22;99388.22;5115317;27;19923;-39
2022/09/27 06:10:41;;;;;;;;;;;;;;;20.58;49.29;99407.06;5114347;27;19927;-39
2022/09/27 06:13:09;;;;;;;;;;;;;;;20.56;49.19;99414.09;5119248;27;20558;-39
2022/09/27 06:15:36;;;;;;;;;;;;;;;20.58;49.37;99409.84;5090956;27;20006;-39
2022/09/27 06:18:03;;;;;;;;;;;;;;;20.59;49.28;99411.44;5110466;27;20027;-39
2022/09/27 06:20:28;;;;;;;;;;;;;;;20.62;49.31;99415.53;5117589;27;20392;-40
2022/09/27 06:22:54;;;;;;;;;;;;;;;20.61;49.20;99411.16;5127167;27;19923;-39
2022/09/27 06:25:20;;;;;;;;;;;;;;;20.56;49.79;99428.72;5111940;27;20479;-40
2022/09/27 06:27:46;;;;;;;;;;;;;;;20.64;49.51;99418.75;5112863;27;19924;-39
2022/09/27 06:30:11;;;;;;;;;;;;;;;20.64;49.37;99416.00;5115486;28;19927;-39
2022/09/27 06:32:40;;;;;;;;;;;;;;;20.63;49.50;99414.38;5116853;27;19923;-39
2022/09/27 06:35:06;;;;;;;;;;;;;;;20.61;49.50;99419.44;5117075;27;20340;-39
2022/09/27 06:37:33;;;;;;;;;;;;;;;20.67;49.62;99415.34;5110756;27;19930;-41
2022/09/27 06:39:59;;;;;;;;;;;;;;;20.64;49.56;99419.59;5114282;27;20077;-43
2022/09/27 06:42:26;;;;;;;;;;;;;;;20.62;49.55;99415.53;5119843;27;19928;-41
2022/09/27 06:44:51;;;;;;;;;;;;;;;20.62;49.75;99421.88;5091269;27;19938;-43
2022/09/27 06:47:18;;;;;;;;;;;;;;;20.65;49.99;99425.94;5094247;27;21161;-40
2022/09/27 06:49:43;;;;;;;;;;;;;;;20.69;49.87;99424.16;5100567;27;20030;-39
2022/09/27 06:52:09;;;;;;;;;;;;;;;20.65;49.92;99431.47;5106980;27;20177;-39
2022/09/27 06:54:35;;;;;;;;;;;;;;;20.65;49.73;99434.25;5109356;27;20446;-39
2022/09/27 06:57:00;;;;;;;;;;;;;;;20.65;49.23;99426.75;5106371;27;19931;-39
2022/09/27 07:02:13;;;;;;;;;;;;;;;20.62;49.14;99429.34;5080480;27;20049;-39
2022/09/27 07:04:39;;;;;;;;;;;;;;;20.62;49.25;99441.22;5106312;27;19931;-39
2022/09/27 07:07:05;;;;;;;;;;;;;;;20.61;49.31;99444.34;5101754;27;19939;-39
2022/09/27 07:09:30;;;;;;;;;;;;;;;20.63;48.96;99453.09;5090004;27;19940;-39
2022/09/27 07:11:56;;;;;;;;;;;;;;;20.61;48.94;99447.91;5087991;27;20191;-39
2022/09/27 07:14:22;;;;;;;;;;;;;;;20.60;48.82;99453.78;5099383;27;19927;-39
2022/09/27 07:16:47;;;;;;;;;;;;;;;20.61;49.02;99453.44;5104245;27;20197;-39
2022/09/27 07:19:14;;;;;;;;;;;;;;;20.63;49.01;99459.44;5099546;27;19980;-39
2022/09/27 07:21:39;;;;;;;;;;;;;;;20.62;49.13;99454.25;5105365;27;20035;-39
2022/09/27 07:24:05;;;;;;;;;;;;;;;20.63;49.10;99455.88;5109124;27;19931;-39
2022/09/27 07:26:30;;;;;;;;;;;;;;;20.62;48.99;99457.81;5105255;27;20267;-39
2022/09/27 07:28:56;;;;;;;;;;;;;;;20.60;49.16;99454.59;5110301;27;19927;-40
2022/09/27 07:31:21;;;;;;;;;;;;;;;20.60;49.18;99462.06;5107988;27;19932;-39
2022/09/27 07:33:47;;;;;;;;;;;;;;;20.59;49.00;99457.66;5112544;27;19932;-40
2022/09/27 07:36:13;;;;;;;;;;;;;;;20.62;49.12;99465.31;5109032;27;19976;-39
2022/09/27 07:38:38;;;;;;;;;;;;;;;20.61;48.99;99464.50;5089305;28;20313;-39
2022/09/27 07:41:07;;;;;;;;;;;;;;;20.61;49.14;99467.28;5104490;27;19923;-41
2022/09/27 07:43:33;;;;;;;;;;;;;;;20.60;49.08;99468.41;5112877;27;20060;-40
2022/09/27 07:45:58;;;;;;;;;;;;;;;20.61;49.19;99472.81;5105025;27;19927;-39
2022/09/27 07:48:24;;;;;;;;;;;;;;;20.60;48.93;99473.13;5093559;27;19934;-40
2022/09/27 07:50:51;;;;;;;;;;;;;;;20.63;49.05;99476.03;5110471;27;20451;-39
2022/09/27 07:53:17;;;;;;;;;;;;;;;20.63;48.80;99478.00;5105277;27;20339;-39
2022/09/27 07:55:42;;;;;;;;;;;;;;;20.63;48.99;99480.75;5104532;27;20098;-38
2022/09/27 08:00:49;;;;;;;;;;;;;;;20.29;49.81;99491.47;5798187;22;19929;-42
2022/09/27 08:03:16;;;;;;;;;;;;;;;20.53;49.29;99499.31;4978683;28;19929;-40
2022/09/27 08:05:42;;;;;;;;;;;;;;;20.62;49.13;99492.97;4966455;28;20004;-40
2022/09/27 08:08:08;;;;;;;;;;;;;;;20.64;49.04;99497.06;4948892;28;19942;-40
2022/09/27 08:10:33;;;;;;;;;;;;;;;20.66;49.03;99489.22;4966481;28;19988;-39
2022/09/27 08:13:01;;;;;;;;;;;;;;;20.65;48.84;99503.41;4941272;28;19941;-39
2022/09/27 08:15:27;;;;;;;;;;;;;;;20.65;49.05;99506.97;4941092;28;19972;-39
2022/09/27 08:17:53;;;;;;;;;;;;;;;20.65;48.94;99506.97;4950747;28;20514;-40
2022/09/27 08:20:18;;;;;;;;;;;;;;;20.66;48.59;99511.38;4974429;28;19978;-39
2022/09/27 08:22:44;;;;;;;;;;;;;;;20.69;48.48;99516.25;4973666;28;19926;-40
2022/09/27 08:25:10;;;;;;;;;;;;;;;20.70;48.78;99514.28;4969881;28;19933;-40
2022/09/27 08:27:35;;;;;;;;;;;;;;;20.69;48.73;99520.97;4974211;28;19933;-39
2022/09/27 08:30:02;;;;;;;;;;;;;;;20.61;48.41;99519.81;4967942;28;20519;-40
2022/09/27 08:32:29;;;;;;;;;;;;;;;20.67;48.53;99526.00;4969031;28;19934;-40
2022/09/27 08:34:55;;;;;;;;;;;;;;;20.68;48.56;99528.47;4963831;28;20110;-39
2022/09/27 08:37:20;;;;;;;;;;;;;;;20.68;48.71;99527.63;4963716;28;20020;-39
2022/09/27 08:39:46;;;;;;;;;;;;;;;20.66;49.13;99519.66;4961040;28;19941;-39
2022/09/27 08:42:24;;;;;;;;;;;;;;;20.65;49.24;99523.56;4971552;28;19926;-41
2022/09/27 08:44:53;;;;;;;;;;;;;;;20.65;49.40;99523.56;4969136;28;20480;-40
2022/09/27 08:47:28;;;;;;;;;;;;;;;20.68;49.26;99530.38;4952546;28;19977;-39
2022/09/27 08:49:56;;;;;;;;;;;;;;;20.69;49.29;99526.50;4974271;28;20056;-40
2022/09/27 08:52:23;;;;;;;;;;;;;;;20.69;49.43;99529.28;4974958;28;19965;-39
2022/09/27 08:54:49;;;;;;;;;;;;;;;20.68;49.78;99522.94;4953584;28;20065;-39
2022/09/27 08:57:15;;;;;;;;;;;;;;;20.67;49.95;99532.34;4976950;28;20071;-40
2022/09/27 08:59:44;;;;;;;;;;;;;;;20.69;49.96;99526.50;4968802;28;20054;-41
2022/09/27 09:02:13;;;;;;;;;;;;;;;20.67;49.90;99529.59;4976274;28;19966;-39
2022/09/27 09:04:39;;;;;;;;;;;;;;;20.68;49.72;99525.69;4958286;28;19926;-39
2022/09/27 09:09:47;;;;;;;;;;;;;;;20.71;49.57;99524.22;5145692;27;20305;-40
2022/09/27 09:12:48;;;;;;;;;;;;;;;20.75;49.61;99520.47;5127955;27;20148;-41
2022/09/27 09:15:53;;;;;;;;;;;;;;;20.74;49.85;99529.09;5115657;27;20018;-40
2022/09/27 09:18:37;;;;;;;;;;;;;;;20.71;50.04;99524.22;5114114;27;20018;-40
2022/09/27 09:21:09;;;;;;;;;;;;;;;20.75;49.83;99525.19;5127778;27;20339;-40
2022/09/27 09:23:46;;;;;;;;;;;;;;;20.77;49.63;99526.50;5131013;27;19939;-40
2022/09/27 09:26:15;;;;;;;;;;;;;;;20.75;49.94;99520.47;5130020;27;20228;-40
2022/09/27 09:29:01;;;;;;;;;;;;;;;20.73;49.97;99521.97;5130884;27;20452;-40
2022/09/27 09:31:32;;;;;;;;;;;;;;;20.71;50.02;99529.75;5122017;27;20022;-40
2022/09/27 09:33:59;;;;;;;;;;;;;;;20.75;49.70;99531.53;5129224;27;19942;-40
2022/09/27 09:36:28;;;;;;;;;;;;;;;20.78;49.52;99527.31;5106039;27;20026;-42
2022/09/27 09:38:54;;;;;;;;;;;;;;;20.77;49.63;99522.94;5122092;27;20049;-40
2022/09/27 09:41:21;;;;;;;;;;;;;;;20.77;49.59;99525.69;5122203;27;20268;-40
2022/09/27 09:43:49;;;;;;;;;;;;;;;20.79;49.26;99520.66;5124160;27;20042;-40
2022/09/27 09:46:24;;;;;;;;;;;;;;;20.80;49.33;99520.31;5116886;27;19966;-40
2022/09/27 09:48:54;;;;;;;;;;;;;;;20.78;49.34;99521.78;5130552;27;20006;-41
2022/09/27 09:51:21;;;;;;;;;;;;;;;20.77;49.34;99511.88;5125744;27;20468;-41
2022/09/27 09:53:55;;;;;;;;;;;;;;;20.76;49.40;99522.09;5118513;27;20037;-39
2022/09/27 09:56:23;;;;;;;;;;;;;;;20.74;49.35;99507.78;5126571;27;19967;-41
2022/09/27 09:58:51;;;;;;;;;;;;;;;20.77;49.33;99500.81;5117727;27;19963;-39
2022/09/27 10:01:20;;;;;;;;;;;;;;;20.76;49.38;99502.72;5124849;27;19963;-40
2022/09/27 10:03:46;;;;;;;;;;;;;;;20.76;49.36;99504.69;5105572;27;19934;-40
2022/09/27 10:06:12;;;;;;;;;;;;;;;20.78;49.55;99508.75;5102792;27;19947;-41
2022/09/27 10:08:37;;;;;;;;;;;;;;;20.77;49.61;99507.16;5122101;27;19940;-42
2022/09/27 10:11:03;;;;;;;;;;;;;;;20.78;50.01;99506.00;5121762;27;20020;-40
2022/09/27 10:13:29;;;;;;;;;;;;;;;20.80;49.51;99500.94;5122310;27;20425;-39
2022/09/27 10:15:59;;;;;;;;;;;;;;;20.82;49.54;99505.34;5121029;27;19977;-40
2022/09/27 10:18:26;;;;;;;;;;;;;;;20.80;49.92;99494.59;5104999;27;20202;-42
2022/09/27 10:20:54;;;;;;;;;;;;;;;20.82;49.56;99497.06;5115832;27;20043;-40
2022/09/27 10:23:20;;;;;;;;;;;;;;;20.79;49.46;99495.75;5113968;27;20030;-40
2022/09/27 10:25:47;;;;;;;;;;;;;;;20.79;49.67;99499.31;5092476;28;20016;-40
2022/09/27 10:28:32;;;;;;;;;;;;;;;20.79;49.60;99493.78;5092630;28;21213;-40
2022/09/27 10:30:59;;;;;;;;;;;;;;;20.80;49.82;99495.41;5094541;28;19976;-40
2022/09/27 10:33:25;;;;;;;;;;;;;;;20.80;49.84;99494.59;5091366;28;19974;-41
2022/09/27 10:35:50;;;;;;;;;;;;;;;20.83;49.73;99487.59;5094536;27;20034;-40
2022/09/27 10:38:20;;;;;;;;;;;;;;;20.83;49.87;99496.72;5112873;27;19935;-40
2022/09/27 10:40:47;;;;;;;;;;;;;;;20.83;49.60;99493.13;5090103;28;20707;-40
2022/09/27 10:43:32;;;;;;;;;;;;;;;20.84;49.64;99503.06;5104332;27;20294;-40
2022/09/27 10:45:59;;;;;;;;;;;;;;;20.84;49.81;99494.75;5090370;28;20441;-40
2022/09/27 10:48:25;;;;;;;;;;;;;;;20.84;49.59;99498.34;5109764;27;19935;-39
2022/09/27 10:50:55;;;;;;;;;;;;;;;20.84;49.62;99494.75;5110848;28;19923;-41
2022/09/27 10:53:24;;;;;;;;;;;;;;;20.82;49.63;99497.88;5094237;27;19930;-40
2022/09/27 10:55:50;;;;;;;;;;;;;;;20.83;49.59;99493.94;5105978;27;19927;-41
2022/09/27 10:58:17;;;;;;;;;;;;;;;20.84;49.76;99497.53;5115250;27;19927;-41
2022/09/27 11:00:43;;;;;;;;;;;;;;;20.84;49.67;99498.34;5115126;28;20105;-40
2022/09/27 11:03:13;;;;;;;;;;;;;;;20.85;50.04;99504.69;5120230;28;19951;-39
2022/09/27 11:05:39;;;;;;;;;;;;;;;20.84;50.19;99503.88;5117641;27;20117;-40
2022/09/27 11:08:26;;;;;;;;;;;;;;;20.85;50.44;99499.16;5097593;27;20084;-40
2022/09/27 11:10:59;;;;;;;;;;;;;;;20.85;50.22;99499.97;5101626;27;19985;-40
2022/09/27 11:13:26;;;;;;;;;;;;;;;20.84;50.16;99492.81;5111362;27;20029;-40
2022/09/27 11:15:58;;;;;;;;;;;;;;;20.85;50.24;99499.97;5106995;27;20022;-39
2022/09/27 11:21:08;;;;;;;;;;;;;;;20.81;50.65;99504.50;5141752;27;19998;-38
2022/09/27 11:23:38;;;;;;;;;;;;;;;20.83;50.52;99495.91;5145446;27;20664;-38
2022/09/27 11:26:09;;;;;;;;;;;;;;;20.80;50.49;99492.63;5135578;27;20022;-42
2022/09/27 11:28:39;;;;;;;;;;;;;;;20.92;50.08;99492.00;5132570;27;20018;-40
2022/09/27 11:31:24;;;;;;;;;;;;;;;20.89;50.23;99486.28;5147013;27;21033;-39
2022/09/27 11:33:56;;;;;;;;;;;;;;;20.89;50.01;99483.53;5144302;27;19923;-38
2022/09/27 11:36:42;;;;;;;;;;;;;;;20.90;49.86;99480.44;5138945;27;20042;-37
2022/09/27 11:39:25;;;;;;;;;;;;;;;20.87;50.34;99478.31;5128189;27;20175;-37
2022/09/27 11:42:13;;;;;;;;;;;;;;;20.87;50.13;99477.50;5121504;27;20018;-38
2022/09/27 11:44:43;;;;;;;;;;;;;;;20.89;49.87;99476.03;5126932;27;20444;-39
2022/09/27 11:47:28;;;;;;;;;;;;;;;20.89;49.96;99472.44;5120441;27;20553;-37
2022/09/27 11:49:59;;;;;;;;;;;;;;;20.89;49.80;99464.97;5120223;27;19931;-37
2022/09/27 11:52:43;;;;;;;;;;;;;;;20.90;49.70;99469.38;5137165;27;20488;-40
2022/09/27 11:55:28;;;;;;;;;;;;;;;20.92;49.88;99461.53;5127807;27;20252;-38
2022/09/27 11:58:13;;;;;;;;;;;;;;;20.88;50.15;99463.34;5129764;27;20035;-37
2022/09/27 12:00:42;;;;;;;;;;;;;;;20.87;49.89;99456.19;5142030;27;20014;-40
2022/09/27 12:03:27;;;;;;;;;;;;;;;20.89;49.86;99459.41;5143108;27;20281;-39
2022/09/27 12:05:59;;;;;;;;;;;;;;;20.60;51.79;99468.41;5126654;27;20022;-46
2022/09/27 12:08:51;;;;;;;;;;;;;;;20.78;50.69;99460.91;5139799;27;20029;-40
2022/09/27 12:11:19;;;;;;;;;;;;;;;20.84;50.12;99465.13;5132463;27;19967;-40
2022/09/27 12:13:46;;;;;;;;;;;;;;;20.87;50.15;99464.50;5146633;27;19931;-40
2022/09/27 12:16:12;;;;;;;;;;;;;;;20.84;50.57;99465.13;5126019;27;20783;-40
2022/09/27 12:18:38;;;;;;;;;;;;;;;20.86;50.65;99462.06;5149692;27;19935;-41
2022/09/27 12:21:03;;;;;;;;;;;;;;;20.87;50.33;99466.44;5129456;27;20058;-40
2022/09/27 12:23:36;;;;;;;;;;;;;;;20.85;50.69;99468.72;5145267;27;19939;-40
2022/09/27 12:26:04;;;;;;;;;;;;;;;20.86;50.60;99470.34;5142211;27;19923;-40
2022/09/27 12:28:32;;;;;;;;;;;;;;;20.87;50.44;99464.50;5130609;27;20099;-40
2022/09/27 12:31:01;;;;;;;;;;;;;;;20.89;50.13;99470.50;5138526;27;19923;-40
2022/09/27 12:33:49;;;;;;;;;;;;;;;20.88;50.12;99468.88;5120244;27;19961;-39
2022/09/27 12:36:16;;;;;;;;;;;;;;;20.90;49.92;99466.59;5113266;27;20020;-40
2022/09/27 12:38:42;;;;;;;;;;;;;;;20.91;49.93;99473.75;5115083;27;20030;-40
2022/09/27 12:41:09;;;;;;;;;;;;;;;20.91;49.85;99484.03;5135706;27;19966;-41
2022/09/27 12:43:34;;;;;;;;;;;;;;;20.91;49.82;99484.84;5134553;27;20366;-44
2022/09/27 12:46:12;;;;;;;;;;;;;;;20.92;49.83;99480.91;5133347;27;19942;-45
2022/09/27 12:48:59;;;;;;;;;;;;;;;20.94;49.53;99491.66;5130319;27;19931;-49
2022/09/27 12:51:24;;;;;;;;;;;;;;;20.94;49.55;99489.72;5111900;27;19923;-47
2022/09/27 12:53:57;;;;;;;;;;;;;;;20.93;49.49;99490.84;5132510;27;19931;-47
2022/09/27 12:56:33;;;;;;;;;;;;;;;20.92;49.47;99492.00;5130715;27;20052;-46
2022/09/27 12:59:09;;;;;;;;;;;;;;;20.93;49.41;99493.59;5136887;27;19973;-46
2022/09/27 13:01:41;;;;;;;;;;;;;;;20.93;49.23;99493.59;5135752;27;19923;-46
2022/09/27 13:04:18;;;;;;;;;;;;;;;20.92;49.33;99494.75;5133428;27;20742;-47
2022/09/27 13:06:55;;;;;;;;;;;;;;;20.94;49.47;99488.88;5129390;27;20019;-46
2022/09/27 13:09:41;;;;;;;;;;;;;;;20.93;49.30;99485.31;5136373;27;19984;-46
2022/09/27 13:12:16;;;;;;;;;;;;;;;20.95;49.39;99485.00;5115658;27;20034;-46